createdAt,value
2018-11-21T16:06:34.988Z,92.64
2018-11-21T16:07:34.945Z,93.05
2018-11-21T16:08:34.958Z,92.95
2018-11-21T16:09:34.957Z,92.99
2018-11-21T16:10:34.921Z,92.89
2018-11-21T16:11:34.915Z,92.99
2018-11-21T16:12:34.907Z,92.99
2018-11-21T16:13:34.890Z,92.58
2018-11-21T16:14:35.004Z,92.89
2018-11-21T16:15:35.620Z,92.68
2018-11-21T16:16:34.857Z,92.89
2018-11-21T16:17:34.888Z,92.27
2018-11-21T16:18:34.842Z,92.47
2018-11-21T16:19:34.859Z,92.47
2018-11-21T16:20:34.835Z,92.68
2018-11-21T16:21:34.806Z,92.37
2018-11-21T16:22:34.842Z,92.54
2018-11-21T16:23:34.881Z,92.79
2018-11-21T16:24:34.818Z,92.43
2018-11-21T16:25:34.789Z,92.79
2018-11-21T16:26:34.957Z,92.58
2018-11-21T16:27:34.806Z,92.79
2018-11-21T16:28:34.740Z,92.89
2018-11-21T16:29:36.932Z,93.10
2018-11-21T16:30:34.821Z,92.99
2018-11-21T16:31:35.103Z,92.47
2018-11-21T16:32:34.708Z,92.68
2018-11-21T16:33:34.687Z,92.47
2018-11-21T16:34:34.706Z,92.79
2018-11-21T16:35:34.663Z,92.58
2018-11-21T16:36:34.712Z,92.79
2018-11-21T16:37:34.828Z,92.79
2018-11-21T16:38:34.768Z,92.68
2018-11-21T16:39:34.672Z,92.68
2018-11-21T16:40:34.633Z,92.89
2018-11-21T16:41:34.672Z,92.47
2018-11-21T16:42:34.828Z,91.75
2018-11-21T16:43:34.580Z,91.64
2018-11-21T16:44:34.743Z,91.37
2018-11-21T16:45:34.556Z,91.33
2018-11-21T16:46:34.565Z,91.75
2018-11-21T16:47:34.534Z,91.85
2018-11-21T16:48:34.530Z,91.75
2018-11-21T16:49:34.640Z,91.75
2018-11-21T16:50:34.516Z,91.75
2018-11-21T16:51:34.498Z,91.53
2018-11-21T16:52:34.490Z,91.33
2018-11-21T16:53:35.202Z,91.85
2018-11-21T16:54:34.523Z,91.64
2018-11-21T16:55:34.475Z,91.53
2018-11-21T16:56:34.499Z,91.53
2018-11-21T16:57:34.433Z,91.96
2018-11-21T16:58:34.437Z,91.85
2018-11-21T16:59:34.463Z,91.96
2018-11-21T17:00:34.444Z,91.33
2018-11-21T17:01:34.393Z,91.89
2018-11-21T17:02:34.450Z,91.89
2018-11-21T17:03:34.478Z,91.33
2018-11-21T17:04:34.394Z,92.06
2018-11-21T17:05:34.357Z,91.33
2018-11-21T17:06:34.410Z,91.96
2018-11-21T17:07:34.348Z,91.78
2018-11-21T17:08:34.330Z,91.37
2018-11-21T17:09:34.418Z,91.58
2018-11-21T17:10:34.324Z,91.37
2018-11-21T17:11:34.300Z,91.78
2018-11-21T17:12:34.379Z,92.00
2018-11-21T17:13:34.278Z,91.78
2018-11-21T17:14:34.291Z,91.27
2018-11-21T17:15:34.307Z,91.47
2018-11-21T17:16:34.240Z,91.37
2018-11-21T17:17:34.246Z,91.37
2018-11-21T17:18:34.223Z,91.58
2018-11-21T17:19:34.288Z,91.47
2018-11-21T17:20:34.209Z,91.68
2018-11-21T17:21:34.294Z,91.58
2018-11-21T17:22:34.177Z,91.58
2018-11-21T17:23:34.371Z,91.89
2018-11-21T17:24:34.248Z,92.21
2018-11-21T17:25:34.172Z,91.89
2018-11-21T17:26:34.299Z,91.89
2018-11-21T17:27:34.138Z,92.00
2018-11-21T17:28:34.157Z,92.72
2018-11-21T17:29:34.190Z,92.62
2018-11-21T17:30:34.091Z,91.89
2018-11-21T17:31:34.112Z,92.00
2018-11-21T17:32:34.074Z,91.68
2018-11-21T17:33:34.072Z,91.78
2018-11-21T17:34:34.124Z,91.37
2018-11-21T17:35:34.268Z,91.41
2018-11-21T17:36:34.035Z,92.00
2018-11-21T17:37:34.020Z,91.78
2018-11-21T17:38:34.021Z,91.89
2018-11-21T17:39:34.086Z,91.78
2018-11-21T17:40:34.143Z,91.31
2018-11-21T17:41:33.981Z,91.20
2018-11-21T17:42:34.020Z,91.52
2018-11-21T17:43:33.974Z,91.62
2018-11-21T17:44:34.008Z,91.47
2018-11-21T17:45:33.956Z,91.52
2018-11-21T17:46:33.963Z,91.58
2018-11-21T17:47:33.923Z,91.31
2018-11-21T17:48:33.963Z,91.52
2018-11-21T17:49:33.909Z,91.37
2018-11-21T17:50:33.961Z,91.00
2018-11-21T17:51:33.880Z,91.00
2018-11-21T17:52:33.961Z,91.16
2018-11-21T17:53:33.860Z,91.83
2018-11-21T17:54:33.848Z,91.52
2018-11-21T17:55:33.836Z,91.72
2018-11-21T17:56:33.871Z,91.58
2018-11-21T17:57:33.817Z,91.52
2018-11-21T17:58:33.833Z,91.31
2018-11-21T17:59:33.808Z,91.41
2018-11-21T18:00:33.871Z,91.68
2018-11-21T18:01:33.786Z,91.93
2018-11-21T18:02:33.769Z,91.37
2018-11-21T18:03:33.847Z,92.03
2018-11-21T18:04:33.789Z,91.89
2018-11-21T18:05:33.733Z,92.03
2018-11-21T18:06:33.733Z,92.03
2018-11-21T18:07:33.795Z,91.83
2018-11-21T18:08:33.765Z,91.83
2018-11-21T18:09:33.706Z,92.03
2018-11-21T18:10:33.962Z,92.77
2018-11-21T18:11:34.218Z,91.72
2018-11-21T18:12:33.853Z,92.03
2018-11-21T18:13:33.809Z,92.14
2018-11-21T18:14:33.820Z,91.62
2018-11-21T18:15:33.648Z,91.20
2018-11-21T18:16:33.742Z,91.62
2018-11-21T18:17:33.619Z,91.93
2018-11-21T18:18:33.666Z,91.83
2018-11-21T18:19:33.839Z,91.83
2018-11-21T18:20:33.796Z,91.83
2018-11-21T18:21:33.688Z,91.62
2018-11-21T18:22:33.649Z,91.93
2018-11-21T18:23:33.711Z,91.83
2018-11-21T18:24:33.870Z,91.52
2018-11-21T18:25:33.764Z,91.93
2018-11-21T18:26:33.520Z,92.35
2018-11-21T18:27:33.506Z,92.03
2018-11-21T18:28:33.526Z,91.52
2018-11-21T18:29:33.580Z,91.62
2018-11-21T18:30:34.631Z,91.72
2018-11-21T18:31:35.187Z,91.41
2018-11-21T18:32:33.451Z,91.83
2018-11-21T18:33:34.111Z,91.93
2018-11-21T18:34:33.826Z,91.41
2018-11-21T18:35:35.684Z,91.62
2018-11-21T18:36:33.419Z,91.72
2018-11-21T18:37:33.591Z,91.93
2018-11-21T18:38:33.861Z,91.83
2018-11-21T18:39:33.891Z,92.25
2018-11-21T18:40:33.404Z,91.93
2018-11-21T18:41:33.362Z,92.03
2018-11-21T18:42:33.365Z,91.93
2018-11-21T18:43:33.349Z,91.93
2018-11-21T18:44:33.326Z,91.41
2018-11-21T18:45:33.349Z,91.93
2018-11-21T18:46:33.480Z,92.03
2018-11-21T18:47:33.567Z,91.83
2018-11-21T18:48:33.303Z,91.83
2018-11-21T18:49:33.381Z,91.62
2018-11-21T18:50:33.263Z,91.62
2018-11-21T18:51:33.254Z,91.41
2018-11-21T18:52:33.541Z,91.62
2018-11-21T18:53:33.232Z,91.31
2018-11-21T18:54:33.221Z,91.41
2018-11-21T18:55:33.240Z,91.62
2018-11-21T18:56:33.209Z,91.83
2018-11-21T18:57:33.192Z,91.62
2018-11-21T18:58:33.283Z,91.83
2018-11-21T18:59:33.373Z,91.62
2018-11-21T19:00:33.180Z,92.14
2018-11-21T19:01:33.172Z,92.03
2018-11-21T19:02:33.139Z,91.83
2018-11-21T19:03:33.144Z,91.62
2018-11-21T19:04:33.150Z,91.62
2018-11-21T19:05:33.108Z,92.14
2018-11-21T19:06:33.096Z,91.83
2018-11-21T19:07:33.116Z,91.93
2018-11-21T19:08:33.129Z,91.41
2018-11-21T19:09:33.068Z,91.31
2018-11-21T19:10:33.088Z,91.62
2018-11-21T19:11:33.089Z,92.03
2018-11-21T19:12:33.087Z,91.41
2018-11-21T19:13:33.024Z,91.41
2018-11-21T19:14:33.014Z,91.41
2018-11-21T19:15:33.775Z,91.62
2018-11-21T19:16:33.029Z,92.03
2018-11-21T19:17:33.494Z,92.03
2018-11-21T19:18:32.972Z,92.14
2018-11-21T19:19:33.011Z,92.03
2018-11-21T19:20:33.203Z,92.03
2018-11-21T19:21:33.023Z,92.18
2018-11-21T19:22:33.010Z,91.93
2018-11-21T19:23:32.921Z,91.93
2018-11-21T19:24:32.914Z,92.03
2018-11-21T19:25:33.268Z,91.93
2018-11-21T19:26:33.612Z,93.08
2018-11-21T19:27:32.881Z,92.50
2018-11-21T19:28:32.906Z,92.77
2018-11-21T19:29:32.868Z,92.77
2018-11-21T19:30:32.977Z,92.50
2018-11-21T19:31:32.839Z,91.97
2018-11-21T19:32:32.843Z,91.93
2018-11-21T19:33:32.820Z,92.03
2018-11-21T19:34:32.842Z,91.97
2018-11-21T19:35:32.995Z,91.41
2018-11-21T19:36:32.980Z,92.25
2018-11-21T19:37:32.831Z,91.97
2018-11-21T19:38:32.784Z,92.50
2018-11-21T19:39:33.190Z,91.97
2018-11-21T19:40:33.119Z,92.97
2018-11-21T19:41:32.857Z,92.81
2018-11-21T19:42:32.785Z,92.77
2018-11-21T19:43:32.829Z,92.81
2018-11-21T19:44:33.010Z,92.66
2018-11-21T19:45:33.693Z,91.87
2018-11-21T19:46:32.873Z,91.97
2018-11-21T19:47:32.796Z,92.60
2018-11-21T19:48:33.217Z,92.50
2018-11-21T19:49:33.582Z,93.02
2018-11-21T19:50:32.791Z,92.91
2018-11-21T19:51:32.833Z,92.71
2018-11-21T19:52:32.889Z,92.60
2018-11-21T19:53:32.713Z,93.12
2018-11-21T19:54:32.792Z,93.12
2018-11-21T19:55:32.773Z,93.23
2018-11-21T19:56:32.619Z,93.23
2018-11-21T19:57:33.340Z,92.60
2018-11-21T19:58:33.421Z,92.85
2018-11-21T19:59:32.667Z,92.50
2018-11-21T20:00:32.984Z,93.37
2018-11-21T20:01:32.982Z,92.81
2018-11-21T20:02:32.517Z,93.27
2018-11-21T20:03:32.509Z,92.96
2018-11-21T20:04:32.532Z,93.33
2018-11-21T20:05:32.623Z,93.69
2018-11-21T20:06:32.674Z,93.48
2018-11-21T20:07:32.824Z,93.48
2018-11-21T20:08:32.729Z,93.48
2018-11-21T20:09:32.826Z,93.90
2018-11-21T20:10:34.097Z,93.27
2018-11-21T20:11:33.145Z,93.59
2018-11-21T20:12:36.463Z,93.84
2018-11-21T20:13:33.809Z,93.59
2018-11-21T20:14:32.851Z,93.84
2018-11-21T20:15:33.394Z,93.84
2018-11-21T20:16:32.734Z,94.04
2018-11-21T20:17:32.883Z,94.25
2018-11-21T20:18:32.591Z,94.78
2018-11-21T20:19:32.586Z,94.78
2018-11-21T20:20:32.357Z,94.35
2018-11-21T20:21:32.620Z,94.46
2018-11-21T20:22:32.955Z,94.46
2018-11-21T20:23:32.522Z,94.25
2018-11-21T20:24:32.511Z,94.78
2018-11-21T20:25:32.534Z,94.78
2018-11-21T20:26:32.362Z,95.09
2018-11-21T20:27:32.309Z,95.19
2018-11-21T20:28:32.432Z,95.09
2018-11-21T20:29:32.376Z,95.13
2018-11-21T20:30:32.317Z,95.09
2018-11-21T20:31:32.362Z,95.19
2018-11-21T20:32:32.562Z,94.98
2018-11-21T20:33:32.316Z,95.03
2018-11-21T20:34:32.593Z,95.13
2018-11-21T20:35:32.446Z,95.13
2018-11-21T20:36:32.440Z,95.34
2018-11-21T20:37:32.404Z,95.55
2018-11-21T20:38:32.859Z,95.90
2018-11-21T20:39:32.781Z,95.34
2018-11-21T20:40:32.337Z,95.49
2018-11-21T20:41:32.416Z,95.44
2018-11-21T20:42:32.377Z,95.38
2018-11-21T20:43:32.180Z,95.76
2018-11-21T20:44:32.307Z,95.65
2018-11-21T20:45:32.294Z,95.65
2018-11-21T20:46:32.392Z,95.44
2018-11-21T20:47:32.386Z,96.38
2018-11-21T20:48:32.808Z,96.28
2018-11-21T20:49:32.134Z,96.07
2018-11-21T20:50:32.366Z,96.28
2018-11-21T20:51:32.638Z,96.22
2018-11-21T20:52:32.665Z,96.49
2018-11-21T20:53:32.156Z,96.07
2018-11-21T20:54:32.096Z,96.28
2018-11-21T20:55:32.060Z,96.38
2018-11-21T20:56:32.066Z,96.28
2018-11-21T20:57:32.313Z,96.38
2018-11-21T20:58:32.301Z,96.33
2018-11-21T20:59:31.999Z,96.17
2018-11-21T21:00:32.150Z,96.17
2018-11-21T21:01:32.146Z,96.22
2018-11-21T21:02:32.017Z,96.01
2018-11-21T21:03:32.383Z,96.11
2018-11-21T21:04:32.354Z,96.22
2018-11-21T21:05:32.240Z,96.33
2018-11-21T21:06:31.946Z,96.11
2018-11-21T21:07:32.177Z,96.53
2018-11-21T21:08:32.024Z,96.53
2018-11-21T21:09:31.967Z,96.53
2018-11-21T21:10:32.876Z,96.64
2018-11-21T21:11:32.134Z,97.58
2018-11-21T21:12:31.999Z,96.64
2018-11-21T21:13:31.937Z,96.64
2018-11-21T21:14:31.907Z,96.74
2018-11-21T21:15:31.938Z,97.05
2018-11-21T21:16:31.996Z,97.05
2018-11-21T21:17:32.023Z,97.52
2018-11-21T21:18:31.833Z,97.52
2018-11-21T21:19:31.742Z,97.47
2018-11-21T21:20:31.943Z,97.52
2018-11-21T21:21:31.848Z,97.62
2018-11-21T21:22:32.049Z,97.41
2018-11-21T21:23:31.836Z,97.47
2018-11-21T21:24:31.851Z,97.47
2018-11-21T21:25:31.813Z,97.52
2018-11-21T21:26:31.735Z,97.16
2018-11-21T21:27:31.965Z,97.52
2018-11-21T21:28:31.741Z,97.27
2018-11-21T21:29:31.796Z,97.52
2018-11-21T21:30:31.680Z,97.20
2018-11-21T21:31:31.663Z,97.20
2018-11-21T21:32:31.634Z,97.10
2018-11-21T21:33:31.769Z,97.41
2018-11-21T21:34:32.329Z,97.62
2018-11-21T21:35:31.632Z,97.41
2018-11-21T21:36:31.596Z,97.41
2018-11-21T21:37:31.714Z,97.41
2018-11-21T21:38:31.724Z,97.52
2018-11-21T21:39:31.930Z,97.41
2018-11-21T21:40:31.802Z,97.52
2018-11-21T21:41:31.551Z,97.14
2018-11-21T21:42:31.678Z,97.45
2018-11-21T21:43:31.639Z,97.45
2018-11-21T21:44:31.608Z,97.56
2018-11-21T21:45:31.512Z,98.08
2018-11-21T21:46:31.555Z,98.29
2018-11-21T21:47:31.491Z,98.61
2018-11-21T21:48:31.496Z,98.19
2018-11-21T21:49:31.468Z,98.39
2018-11-21T21:50:31.442Z,99.13
2018-11-21T21:51:31.420Z,98.71
2018-11-21T21:52:31.444Z,98.71
2018-11-21T21:53:31.398Z,98.08
2018-11-21T21:54:31.375Z,99.02
2018-11-21T21:55:31.371Z,98.82
2018-11-21T21:56:31.356Z,99.02
2018-11-21T21:57:31.345Z,98.82
2018-11-21T21:58:31.371Z,98.71
2018-11-21T21:59:31.325Z,98.50
2018-11-21T22:00:31.320Z,98.92
2018-11-21T22:01:31.339Z,98.46
2018-11-21T22:02:31.295Z,98.82
2018-11-21T22:03:31.291Z,98.39
2018-11-21T22:04:31.614Z,98.92
2018-11-21T22:05:31.268Z,99.02
2018-11-21T22:06:31.254Z,99.13
2018-11-21T22:07:31.251Z,98.77
2018-11-21T22:08:31.249Z,98.46
2018-11-21T22:09:31.239Z,98.82
2018-11-21T22:10:31.262Z,98.67
2018-11-21T22:11:31.205Z,98.98
2018-11-21T22:12:31.214Z,98.88
2018-11-21T22:13:31.206Z,99.19
2018-11-21T22:14:31.183Z,98.67
2018-11-21T22:15:31.185Z,98.77
2018-11-21T22:16:31.190Z,98.35
2018-11-21T22:17:31.220Z,98.67
2018-11-21T22:18:31.131Z,98.35
2018-11-21T22:19:31.152Z,98.77
2018-11-21T22:20:31.118Z,98.46
2018-11-21T22:21:31.207Z,99.08
2018-11-21T22:22:31.488Z,98.04
2018-11-21T22:23:31.079Z,98.35
2018-11-21T22:24:31.073Z,98.25
2018-11-21T22:25:31.066Z,98.77
2018-11-21T22:26:31.063Z,98.88
2018-11-21T22:27:31.050Z,98.88
2018-11-21T22:28:31.070Z,98.77
2018-11-21T22:29:31.732Z,98.14
2018-11-21T22:30:31.018Z,98.67
2018-11-21T22:31:31.040Z,98.56
2018-11-21T22:32:31.065Z,98.77
2018-11-21T22:33:31.006Z,98.21
2018-11-21T22:34:31.001Z,98.62
2018-11-21T22:35:30.957Z,98.83
2018-11-21T22:36:30.964Z,98.72
2018-11-21T22:37:37.898Z,98.52
2018-11-21T22:38:31.137Z,97.58
2018-11-21T22:39:30.951Z,98.21
2018-11-21T22:40:30.966Z,97.99
2018-11-21T22:41:30.902Z,97.99
2018-11-21T22:42:30.895Z,97.47
2018-11-21T22:43:30.885Z,97.78
2018-11-21T22:44:30.896Z,97.37
2018-11-21T22:45:30.855Z,97.16
2018-11-21T22:46:31.167Z,97.11
2018-11-21T22:47:30.871Z,97.32
2018-11-21T22:48:30.824Z,97.32
2018-11-21T22:49:30.839Z,97.58
2018-11-21T22:50:30.806Z,97.43
2018-11-21T22:51:30.793Z,97.43
2018-11-21T22:52:30.812Z,97.53
2018-11-21T22:53:30.774Z,97.22
2018-11-21T22:54:30.769Z,97.32
2018-11-21T22:55:30.769Z,97.53
2018-11-21T22:56:30.742Z,97.43
2018-11-21T22:57:30.732Z,97.22
2018-11-21T22:58:30.752Z,97.22
2018-11-21T22:59:32.212Z,97.32
2018-11-21T23:00:30.699Z,97.49
2018-11-21T23:01:30.700Z,97.70
2018-11-21T23:02:30.693Z,97.01
2018-11-21T23:03:30.697Z,97.28
2018-11-21T23:04:30.711Z,96.76
2018-11-21T23:05:30.685Z,97.49
2018-11-21T23:06:30.656Z,96.44
2018-11-21T23:07:30.658Z,96.55
2018-11-21T23:08:30.623Z,96.55
2018-11-21T23:09:30.830Z,96.66
2018-11-21T23:10:30.644Z,96.44
2018-11-21T23:11:30.622Z,96.34
2018-11-21T23:12:30.590Z,96.44
2018-11-21T23:13:30.601Z,96.55
2018-11-21T23:14:30.571Z,96.44
2018-11-21T23:15:30.549Z,96.44
2018-11-21T23:16:30.616Z,95.72
2018-11-21T23:17:30.564Z,95.92
2018-11-21T23:18:30.536Z,96.23
2018-11-21T23:19:30.519Z,96.34
2018-11-21T23:20:30.508Z,96.34
2018-11-21T23:21:30.494Z,96.44
2018-11-21T23:22:32.577Z,96.03
2018-11-21T23:23:30.775Z,96.03
2018-11-21T23:24:30.480Z,95.50
2018-11-21T23:25:30.646Z,95.50
2018-11-21T23:26:30.594Z,95.82
2018-11-21T23:27:30.435Z,95.61
2018-11-21T23:28:30.441Z,95.56
2018-11-21T23:29:30.408Z,95.50
2018-11-21T23:30:30.438Z,95.46
2018-11-21T23:31:30.383Z,95.98
2018-11-21T23:32:30.369Z,95.46
2018-11-21T23:33:30.409Z,95.78
2018-11-21T23:34:30.383Z,95.29
2018-11-21T23:35:30.645Z,95.36
2018-11-21T23:36:30.326Z,95.56
2018-11-21T23:37:30.409Z,95.15
2018-11-21T23:38:30.309Z,95.04
2018-11-21T23:39:30.317Z,95.04
2018-11-21T23:40:30.381Z,95.25
2018-11-21T23:41:30.286Z,95.04
2018-11-21T23:42:30.281Z,95.40
2018-11-21T23:43:30.432Z,95.29
2018-11-21T23:44:30.272Z,95.15
2018-11-21T23:45:30.244Z,95.19
2018-11-21T23:46:30.532Z,95.50
2018-11-21T23:47:30.309Z,95.19
2018-11-21T23:48:30.368Z,95.61
2018-11-21T23:49:30.407Z,95.40
2018-11-21T23:50:30.349Z,95.36
2018-11-21T23:51:30.182Z,95.40
2018-11-21T23:52:30.212Z,95.72
2018-11-21T23:53:30.234Z,95.50
2018-11-21T23:54:30.142Z,95.40
2018-11-21T23:55:30.132Z,95.50
2018-11-21T23:56:30.121Z,95.50
2018-11-21T23:57:30.116Z,95.82
2018-11-21T23:58:30.155Z,95.09
2018-11-21T23:59:30.090Z,95.15
